Time;durP1;ratioP1;P1;durP2;ratioP2;P2;SDS_P1;SDS_P2;PMS_P1;PMS_P2;Temp;Humidity;BMP_temperature;BMP_pressure;BME280_temperature;BME280_humidity;BME280_pressure;Samples;Min_cycle;Max_cycle;Signal;HPM_P1;HPM_P2
2023/05/12 00:01:15;;;;;;;10.20;5.90;;;8.10;99.90;;;;;;5121578;27;20047;-54
2023/05/12 00:03:41;;;;;;;5.30;3.58;;;8.10;99.90;;;;;;5127787;27;20483;-51
2023/05/12 00:06:09;;;;;;;5.03;3.03;;;8.20;99.90;;;;;;5127883;27;20039;-51
2023/05/12 00:08:36;;;;;;;2.22;1.67;;;8.20;99.90;;;;;;5127741;27;20092;-52
2023/05/12 00:11:02;;;;;;;2.25;1.20;;;8.20;99.90;;;;;;5130444;27;20031;-53
2023/05/12 00:13:29;;;;;;;1.85;1.45;;;8.20;99.90;;;;;;5132481;27;20046;-51
2023/05/12 00:15:57;;;;;;;4.72;1.83;;;8.20;99.90;;;;;;5127871;27;20462;-54
2023/05/12 00:18:25;;;;;;;4.63;1.65;;;8.20;99.90;;;;;;5132418;27;20035;-52
2023/05/12 00:20:53;;;;;;;;;;;8.20;99.90;;;;;;5127734;27;20043;-51
2023/05/12 00:23:21;;;;;;;3.90;1.00;;;8.20;99.90;;;;;;5132479;27;19919;-51
2023/05/12 00:25:48;;;;;;;1.38;0.50;;;8.10;99.90;;;;;;5116686;27;20039;-51
2023/05/12 00:28:15;;;;;;;0.43;0.40;;;8.10;99.90;;;;;;5116644;27;20105;-51
2023/05/12 00:30:42;;;;;;;;;;;7.90;99.90;;;;;;5110235;27;20133;-51
2023/05/12 00:33:08;;;;;;;1.13;0.40;;;8.00;99.90;;;;;;5131377;27;19949;-52
2023/05/12 00:35:35;;;;;;;0.63;0.45;;;7.90;99.90;;;;;;5113832;27;20047;-52
2023/05/12 00:38:02;;;;;;;0.98;0.70;;;7.90;99.90;;;;;;5104692;28;20079;-53
2023/05/12 00:40:29;;;;;;;3.60;0.52;;;7.90;99.90;;;;;;5097267;27;20035;-54
2023/05/12 00:42:56;;;;;;;0.80;0.60;;;7.90;99.90;;;;;;5123415;27;20101;-53
2023/05/12 00:45:23;;;;;;;0.73;0.38;;;7.80;99.90;;;;;;5124171;27;20085;-53
2023/05/12 00:47:51;;;;;;;0.98;0.50;;;7.70;99.90;;;;;;5104821;28;20126;-53
2023/05/12 00:50:18;;;;;;;2.80;0.82;;;7.70;99.90;;;;;;5123314;27;20043;-51
2023/05/12 00:52:46;;;;;;;0.88;0.50;;;7.60;99.90;;;;;;5104317;27;20092;-53
2023/05/12 00:55:13;;;;;;;0.65;0.40;;;7.60;99.90;;;;;;5105475;27;20088;-55
2023/05/12 00:57:41;;;;;;;2.30;1.20;;;7.60;99.90;;;;;;5098357;28;20105;-52
2023/05/12 01:00:10;;;;;;;1.23;0.60;;;7.60;99.90;;;;;;5110268;27;20039;-53
2023/05/12 01:02:38;;;;;;;2.83;0.30;;;7.60;99.90;;;;;;5111868;27;20055;-54
2023/05/12 01:05:05;;;;;;;7.22;0.50;;;7.60;99.90;;;;;;5102861;28;20054;-51
2023/05/12 01:07:33;;;;;;;0.50;0.30;;;7.60;99.90;;;;;;5113695;27;20058;-52
2023/05/12 01:10:00;;;;;;;0.85;0.60;;;7.50;99.90;;;;;;5101303;27;20070;-54
2023/05/12 01:12:31;;;;;;;1.63;0.50;;;7.40;99.90;;;;;;5113513;27;20092;-53
2023/05/12 01:14:58;;;;;;;0.93;0.50;;;7.40;99.90;;;;;;5113201;27;20566;-53
2023/05/12 01:17:32;;;;;;;2.15;1.38;;;7.50;99.90;;;;;;5115950;27;20042;-50
2023/05/12 01:20:03;;;;;;;1.30;1.00;;;7.50;99.90;;;;;;5108848;27;20035;-53
2023/05/12 01:22:32;;;;;;;1.80;0.80;;;7.50;99.90;;;;;;5113691;27;20051;-51
2023/05/12 01:25:01;;;;;;;1.40;0.70;;;7.50;99.90;;;;;;5110939;27;20078;-50
2023/05/12 01:27:30;;;;;;;2.60;1.50;;;7.50;99.90;;;;;;5128302;27;20115;-51
2023/05/12 01:30:00;;;;;;;3.90;2.45;;;7.50;99.90;;;;;;5098063;28;20185;-50
2023/05/12 01:32:31;;;;;;;2.58;1.65;;;7.50;99.90;;;;;;5105388;28;20036;-52
2023/05/12 01:34:58;;;;;;;4.10;0.98;;;7.40;99.90;;;;;;5116702;28;20051;-51
2023/05/12 01:37:25;;;;;;;2.13;0.80;;;7.40;99.90;;;;;;5092562;28;20127;-52
2023/05/12 01:39:53;;;;;;;1.42;0.90;;;7.40;99.90;;;;;;5094055;28;20069;-52
2023/05/12 01:42:20;;;;;;;2.92;1.00;;;7.40;99.90;;;;;;5109531;28;20067;-53
2023/05/12 01:44:48;;;;;;;4.60;2.35;;;7.40;99.90;;;;;;5106527;28;20433;-51
2023/05/12 01:47:14;;;;;;;5.35;3.78;;;7.40;99.90;;;;;;5105170;28;20104;-53
2023/05/12 01:49:47;;;;;;;4.50;2.92;;;7.40;99.90;;;;;;5105051;28;20056;-51
2023/05/12 01:52:15;;;;;;;2.70;1.67;;;7.50;99.90;;;;;;5103298;27;20572;-52
2023/05/12 01:54:42;;;;;;;4.68;1.88;;;7.50;99.90;;;;;;5129440;27;20167;-54
2023/05/12 01:57:10;;;;;;;5.10;3.55;;;7.50;99.90;;;;;;5100141;27;20035;-52
2023/05/12 01:59:38;;;;;;;7.07;3.60;;;7.50;99.90;;;;;;5111668;28;20039;-51
2023/05/12 02:02:05;;;;;;;7.63;3.63;;;7.50;99.90;;;;;;5091056;27;20035;-55
2023/05/12 02:04:33;;;;;;;;;;;7.60;99.90;;;;;;5109016;27;20107;-52
2023/05/12 02:07:00;;;;;;;5.55;3.60;;;7.40;99.90;;;;;;5108318;28;19920;-52
2023/05/12 02:09:28;;;;;;;9.52;5.38;;;7.40;99.90;;;;;;5112521;27;20051;-54
2023/05/12 02:12:00;;;;;;;7.05;4.40;;;7.50;99.90;;;;;;5114893;27;20047;-55
2023/05/12 02:14:27;;;;;;;5.22;3.67;;;7.50;99.90;;;;;;5135133;27;20042;-53
2023/05/12 02:16:55;;;;;;;7.43;3.45;;;7.40;99.90;;;;;;5116449;27;20084;-54
2023/05/12 02:19:23;;;;;;;5.03;2.13;;;7.40;99.90;;;;;;5115051;27;20045;-53
2023/05/12 02:21:50;;;;;;;14.20;4.78;;;7.40;99.90;;;;;;5095714;28;20092;-54
2023/05/12 02:24:16;;;;;;;7.72;4.60;;;7.40;99.90;;;;;;5121795;27;20548;-52
2023/05/12 02:26:44;;;;;;;4.75;2.75;;;7.50;99.90;;;;;;5100011;28;20079;-52
2023/05/12 02:29:12;;;;;;;1.13;0.80;;;7.40;99.90;;;;;;5099398;27;20043;-51
2023/05/12 02:31:39;;;;;;;1.13;0.60;;;7.40;99.90;;;;;;5106579;27;20039;-54
2023/05/12 02:34:15;;;;;;;1.42;0.85;;;7.40;99.90;;;;;;5108615;27;20047;-53
2023/05/12 02:36:42;;;;;;;2.55;1.30;;;7.40;99.90;;;;;;5114579;27;20449;-51
2023/05/12 02:39:10;;;;;;;2.00;1.52;;;7.40;99.90;;;;;;5116512;27;20054;-51
2023/05/12 02:41:37;;;;;;;3.65;1.40;;;7.40;99.90;;;;;;5109137;27;20039;-54
2023/05/12 02:44:04;;;;;;;2.55;1.10;;;7.40;99.90;;;;;;5111537;27;20717;-52
2023/05/12 02:46:30;;;;;;;2.60;1.17;;;7.30;99.90;;;;;;5109730;27;20101;-53
2023/05/12 02:48:57;;;;;;;3.53;2.20;;;7.30;99.90;;;;;;5135332;27;20044;-51
2023/05/12 02:51:24;;;;;;;6.68;3.00;;;7.30;99.90;;;;;;5111934;27;20056;-54
2023/05/12 02:53:51;;;;;;;5.65;2.70;;;7.30;99.90;;;;;;5096685;27;20043;-53
2023/05/12 02:56:17;;;;;;;4.35;2.80;;;7.40;99.90;;;;;;5111028;27;20084;-53
2023/05/12 02:58:44;;;;;;;2.75;1.75;;;7.40;99.90;;;;;;5109723;27;20039;-52
2023/05/12 03:01:11;;;;;;;3.45;2.17;;;7.40;99.90;;;;;;5117753;27;20131;-52
2023/05/12 03:03:40;;;;;;;2.97;1.48;;;7.50;99.90;;;;;;5109915;28;20044;-51
2023/05/12 03:06:07;;;;;;;4.45;1.70;;;7.50;99.90;;;;;;5112511;27;20421;-54
2023/05/12 03:08:35;;;;;;;8.43;4.55;;;7.50;99.90;;;;;;5134434;27;20063;-53
2023/05/12 03:11:01;;;;;;;7.18;3.33;;;7.40;99.90;;;;;;5125461;27;20038;-53
2023/05/12 03:13:28;;;;;;;5.45;2.00;;;7.50;99.90;;;;;;5095687;27;20127;-53
2023/05/12 03:15:59;;;;;;;1.92;0.98;;;7.50;99.90;;;;;;5098811;27;20043;-53
2023/05/12 03:18:27;;;;;;;1.60;0.70;;;7.40;99.90;;;;;;5112221;27;20035;-51
2023/05/12 03:20:54;;;;;;;;;;;7.40;99.90;;;;;;5106338;27;20039;-51
2023/05/12 03:23:23;;;;;;;3.42;1.30;;;7.40;99.90;;;;;;5112273;27;19926;-53
2023/05/12 03:25:50;;;;;;;3.63;1.08;;;7.40;99.90;;;;;;5120998;27;20040;-53
2023/05/12 03:28:17;;;;;;;1.25;0.80;;;7.40;99.90;;;;;;5133964;27;20047;-51
2023/05/12 03:30:44;;;;;;;4.45;1.67;;;7.50;99.90;;;;;;5123076;27;20043;-52
2023/05/12 03:33:10;;;;;;;4.30;2.35;;;7.40;99.90;;;;;;5130950;27;20066;-52
2023/05/12 03:35:37;;;;;;;1.10;0.90;;;7.40;99.90;;;;;;5113987;27;20045;-53
2023/05/12 03:38:04;;;;;;;1.63;0.93;;;7.50;99.90;;;;;;5115394;27;20050;-51
2023/05/12 03:40:30;;;;;;;2.85;0.70;;;7.40;99.90;;;;;;5121097;27;20027;-54
2023/05/12 03:42:57;;;;;;;1.75;0.90;;;7.40;99.90;;;;;;5113431;27;20052;-53
2023/05/12 03:45:24;;;;;;;0.60;0.50;;;7.40;99.90;;;;;;5111392;27;20035;-51
2023/05/12 03:47:50;;;;;;;1.65;0.80;;;7.40;99.90;;;;;;5108722;27;20088;-52
2023/05/12 03:50:17;;;;;;;1.70;0.50;;;7.40;99.90;;;;;;5126590;27;20031;-55
2023/05/12 03:52:45;;;;;;;;;;;7.40;99.90;;;;;;5133683;27;20512;-51
2023/05/12 03:55:12;;;;;;;0.50;0.40;;;7.30;99.90;;;;;;5110809;27;20329;-55
2023/05/12 03:57:40;;;;;;;1.95;0.70;;;7.30;99.90;;;;;;5115084;27;20402;-54
2023/05/12 04:00:08;;;;;;;2.13;0.88;;;7.20;99.90;;;;;;5110536;27;20607;-53
2023/05/12 04:02:45;;;;;;;0.73;0.40;;;7.20;99.90;;;;;;5101679;27;20043;-51
2023/05/12 04:05:13;;;;;;;1.92;0.55;;;7.20;99.90;;;;;;5111054;27;20039;-51
2023/05/12 04:07:40;;;;;;;1.08;0.90;;;7.30;99.90;;;;;;5125219;27;20081;-52
2023/05/12 04:10:07;;;;;;;3.30;1.20;;;7.30;99.90;;;;;;5112616;27;20126;-54
2023/05/12 04:12:34;;;;;;;2.20;1.00;;;7.40;99.90;;;;;;5121781;27;20166;-54
2023/05/12 04:15:01;;;;;;;0.73;0.60;;;7.40;99.90;;;;;;5121613;27;20043;-53
2023/05/12 04:17:28;;;;;;;1.98;0.77;;;7.30;99.90;;;;;;5112756;27;20071;-51
2023/05/12 04:19:55;;;;;;;3.28;1.15;;;7.20;99.90;;;;;;5129200;27;20039;-53
2023/05/12 04:22:21;;;;;;;4.45;0.90;;;7.20;99.90;;;;;;5113248;27;20035;-52
2023/05/12 04:24:51;;;;;;;1.75;0.55;;;7.30;99.90;;;;;;5113560;27;20518;-52
2023/05/12 04:27:18;;;;;;;0.63;0.40;;;7.40;99.90;;;;;;5112509;27;20060;-51
2023/05/12 04:29:45;;;;;;;2.72;0.40;;;7.30;99.90;;;;;;5103438;27;20567;-51
2023/05/12 04:32:12;;;;;;;1.60;0.50;;;7.40;99.90;;;;;;5122090;27;20034;-51
2023/05/12 04:34:39;;;;;;;1.17;0.70;;;7.40;99.90;;;;;;5113040;27;20404;-55
2023/05/12 04:37:06;;;;;;;2.03;0.70;;;7.40;99.90;;;;;;5110666;27;20035;-52
2023/05/12 04:39:33;;;;;;;0.77;0.40;;;7.40;99.90;;;;;;5105746;27;20103;-52
2023/05/12 04:42:03;;;;;;;1.13;0.52;;;7.40;99.90;;;;;;5105705;27;20095;-51
2023/05/12 04:44:32;;;;;;;0.40;0.35;;;7.30;99.90;;;;;;5106064;27;20047;-54
2023/05/12 04:46:59;;;;;;;0.68;0.47;;;7.40;99.90;;;;;;5099956;28;20126;-53
2023/05/12 04:49:26;;;;;;;0.55;0.40;;;7.50;99.90;;;;;;5110979;27;20439;-54
2023/05/12 04:51:52;;;;;;;1.88;0.80;;;7.50;99.90;;;;;;5101266;28;20047;-54
2023/05/12 04:54:19;;;;;;;2.70;0.50;;;7.60;99.90;;;;;;5110137;27;20043;-55
2023/05/12 04:56:46;;;;;;;2.67;0.85;;;7.60;99.90;;;;;;5108790;28;20036;-53
2023/05/12 04:59:14;;;;;;;0.52;0.40;;;7.60;99.90;;;;;;5105287;28;20577;-51
2023/05/12 05:01:42;;;;;;;6.32;0.70;;;7.60;99.90;;;;;;5108732;27;20031;-51
2023/05/12 05:04:09;;;;;;;1.60;0.93;;;7.60;99.90;;;;;;5111903;27;20117;-51
2023/05/12 05:06:35;;;;;;;1.48;0.70;;;7.60;99.90;;;;;;5107468;28;20040;-53
2023/05/12 05:09:03;;;;;;;2.42;0.85;;;7.60;99.90;;;;;;5108874;28;20039;-51
2023/05/12 05:11:30;;;;;;;2.83;0.80;;;7.60;99.90;;;;;;5117991;27;20027;-51
2023/05/12 05:13:57;;;;;;;1.48;0.98;;;7.70;99.90;;;;;;5103973;28;20051;-55
2023/05/12 05:16:24;;;;;;;1.60;1.00;;;7.80;99.90;;;;;;5109282;27;20047;-53
2023/05/12 05:18:51;;;;;;;2.95;1.40;;;7.80;99.90;;;;;;5099398;28;20058;-53
2023/05/12 05:21:18;;;;;;;2.90;1.45;;;8.00;99.90;;;;;;5112850;27;20036;-55
2023/05/12 05:23:45;;;;;;;2.17;1.20;;;8.10;99.90;;;;;;5120373;27;20063;-53
2023/05/12 05:26:12;;;;;;;2.80;1.20;;;8.20;99.90;;;;;;5098449;28;20221;-55
2023/05/12 05:28:40;;;;;;;1.95;1.50;;;8.20;99.90;;;;;;5091683;28;20127;-55
2023/05/12 05:31:07;;;;;;;;;;;8.30;99.90;;;;;;5103989;28;20043;-51
2023/05/12 05:33:38;;;;;;;4.85;2.47;;;8.40;99.90;;;;;;5109379;28;20041;-54
2023/05/12 05:36:05;;;;;;;5.13;1.98;;;8.40;99.90;;;;;;5116732;28;20118;-54
2023/05/12 05:38:32;;;;;;;6.05;2.65;;;8.40;99.90;;;;;;5100732;28;20050;-52
2023/05/12 05:40:59;;;;;;;6.13;3.05;;;8.60;99.90;;;;;;5117811;28;20027;-51
2023/05/12 05:43:26;;;;;;;5.68;3.45;;;8.70;99.90;;;;;;5100486;28;20040;-51
2023/05/12 05:45:55;;;;;;;;;;;8.80;99.90;;;;;;5111036;28;20035;-53
2023/05/12 05:48:26;;;;;;;5.57;3.50;;;8.90;99.90;;;;;;5110044;28;20399;-54
2023/05/12 05:50:53;;;;;;;5.88;3.47;;;9.10;99.90;;;;;;5108114;28;20434;-52
2023/05/12 05:53:22;;;;;;;6.78;3.60;;;9.20;99.90;;;;;;5100110;28;20392;-54
2023/05/12 05:55:50;;;;;;;6.13;3.60;;;9.40;99.90;;;;;;5103636;28;20043;-51
2023/05/12 05:58:17;;;;;;;7.38;3.38;;;9.50;99.90;;;;;;5108947;28;20085;-50
2023/05/12 06:00:45;;;;;;;4.93;3.30;;;9.50;99.90;;;;;;5119326;28;20109;-51
2023/05/12 06:03:11;;;;;;;6.47;3.70;;;9.60;99.90;;;;;;5110522;28;20049;-52
2023/05/12 06:05:40;;;;;;;7.25;3.55;;;9.70;99.90;;;;;;5126062;28;20042;-52
2023/05/12 06:08:12;;;;;;;9.05;3.67;;;9.80;99.90;;;;;;5106494;28;20495;-51
2023/05/12 06:10:39;;;;;;;7.95;3.80;;;10.00;99.90;;;;;;5120742;28;20031;-52
2023/05/12 06:13:06;;;;;;;7.10;4.03;;;10.10;99.90;;;;;;5127330;27;20058;-51
2023/05/12 06:15:33;;;;;;;5.72;3.63;;;10.10;99.90;;;;;;5103243;28;20040;-51
2023/05/12 06:18:00;;;;;;;6.78;3.95;;;10.10;99.90;;;;;;5107007;28;20166;-52
2023/05/12 06:20:26;;;;;;;5.75;3.63;;;10.10;99.90;;;;;;5101699;28;20043;-51
2023/05/12 06:22:53;;;;;;;5.40;3.17;;;10.20;99.90;;;;;;5108123;28;20043;-51
2023/05/12 06:25:20;;;;;;;5.68;3.33;;;10.20;99.90;;;;;;5107416;28;20071;-51
2023/05/12 06:27:50;;;;;;;6.03;3.65;;;10.40;99.90;;;;;;5125162;28;20039;-53
2023/05/12 06:30:17;;;;;;;5.78;3.50;;;10.50;99.90;;;;;;5099543;28;20047;-52
2023/05/12 06:32:44;;;;;;;5.60;3.63;;;10.50;99.90;;;;;;5100933;28;20102;-53
2023/05/12 06:35:11;;;;;;;5.35;3.42;;;10.40;99.90;;;;;;5100005;28;20093;-52
2023/05/12 06:37:38;;;;;;;5.55;3.53;;;10.40;99.90;;;;;;5122394;27;20115;-52
2023/05/12 06:40:06;;;;;;;8.82;4.15;;;10.40;99.90;;;;;;5086780;28;20492;-51
2023/05/12 06:42:32;;;;;;;6.57;4.15;;;10.40;99.90;;;;;;5107268;27;20035;-52
2023/05/12 06:45:07;;;;;;;8.15;4.03;;;10.40;99.90;;;;;;5107110;28;20084;-52
2023/05/12 06:47:34;;;;;;;6.63;4.03;;;10.50;99.90;;;;;;5112251;27;20085;-51
2023/05/12 06:50:01;;;;;;;5.32;3.65;;;10.70;99.90;;;;;;5101675;28;20043;-51
2023/05/12 06:52:27;;;;;;;5.90;3.58;;;10.70;99.90;;;;;;5128849;27;20563;-51
2023/05/12 06:54:54;;;;;;;9.43;3.97;;;10.90;99.90;;;;;;5112576;28;20650;-52
2023/05/12 06:57:21;;;;;;;5.75;3.47;;;11.10;99.90;;;;;;5117288;27;20579;-51
2023/05/12 06:59:47;;;;;;;5.20;3.40;;;11.20;99.90;;;;;;5118269;27;20039;-51
2023/05/12 07:02:15;;;;;;;4.95;3.50;;;11.20;99.90;;;;;;5127666;27;20437;-51
2023/05/12 07:04:42;;;;;;;5.47;3.40;;;11.10;99.90;;;;;;5122274;27;20118;-52
2023/05/12 07:07:09;;;;;;;6.82;4.07;;;11.20;99.90;;;;;;5120712;27;20488;-51
2023/05/12 07:09:35;;;;;;;7.15;3.50;;;11.30;99.90;;;;;;5121997;27;20055;-54
2023/05/12 07:12:03;;;;;;;6.15;3.78;;;11.40;99.90;;;;;;5122674;27;20130;-51
2023/05/12 07:14:30;;;;;;;5.15;3.40;;;11.50;99.90;;;;;;5131712;27;20064;-55
2023/05/12 07:16:57;;;;;;;;;;;11.60;99.90;;;;;;5113173;27;20092;-52
2023/05/12 07:19:24;;;;;;;5.93;3.42;;;11.70;99.90;;;;;;5130277;27;19954;-51
2023/05/12 07:21:50;;;;;;;5.47;3.60;;;11.80;99.90;;;;;;5122913;27;20035;-50
2023/05/12 07:24:17;;;;;;;5.03;3.22;;;11.70;99.90;;;;;;5129947;27;20074;-51
2023/05/12 07:26:44;;;;;;;6.68;3.22;;;11.90;99.90;;;;;;5123522;27;20099;-55
2023/05/12 07:29:10;;;;;;;4.78;2.83;;;12.10;99.90;;;;;;5125130;27;20487;-51
2023/05/12 07:31:39;;;;;;;3.88;2.85;;;12.30;99.90;;;;;;5115509;27;20079;-52
2023/05/12 07:34:07;;;;;;;6.10;3.17;;;12.40;99.90;;;;;;5133421;27;20062;-51
2023/05/12 07:36:33;;;;;;;7.93;2.80;;;12.30;99.90;;;;;;5121689;27;20123;-52
2023/05/12 07:39:00;;;;;;;4.15;3.00;;;12.50;99.90;;;;;;5118440;27;20043;-52
2023/05/12 07:41:27;;;;;;;4.32;2.53;;;12.80;99.90;;;;;;5114360;27;20036;-51
2023/05/12 07:43:53;;;;;;;3.28;2.45;;;12.90;99.90;;;;;;5133182;27;20071;-52
2023/05/12 07:46:20;;;;;;;4.80;2.40;;;13.00;99.90;;;;;;5123653;27;20480;-53
2023/05/12 07:48:47;;;;;;;6.15;2.80;;;12.80;99.90;;;;;;5112553;27;20039;-53
2023/05/12 07:51:14;;;;;;;4.50;2.53;;;13.00;99.90;;;;;;5119718;27;20141;-51
2023/05/12 07:53:40;;;;;;;4.55;2.85;;;13.00;99.90;;;;;;5131495;27;20125;-51
2023/05/12 07:56:07;;;;;;;3.63;2.45;;;13.20;99.90;;;;;;5117221;27;20122;-54
2023/05/12 07:58:34;;;;;;;3.28;2.33;;;13.00;99.90;;;;;;5121938;27;20055;-52
2023/05/12 08:01:04;;;;;;;4.05;2.45;;;12.70;99.90;;;;;;5123517;27;20467;-51
2023/05/12 08:03:32;;;;;;;3.03;2.47;;;12.50;99.90;;;;;;5130516;27;20402;-50
2023/05/12 08:05:59;;;;;;;3.65;2.20;;;12.70;99.90;;;;;;5119940;27;20055;-53
2023/05/12 08:08:25;;;;;;;4.53;2.30;;;12.90;99.90;;;;;;5115196;27;20074;-51
2023/05/12 08:10:52;;;;;;;4.00;2.05;;;13.20;99.90;;;;;;5133097;27;20441;-51
2023/05/12 08:13:19;;;;;;;3.25;2.15;;;13.40;99.90;;;;;;5111153;27;20115;-54
2023/05/12 08:15:46;;;;;;;2.85;2.08;;;13.50;99.90;;;;;;5132965;27;20480;-52
2023/05/12 08:18:13;;;;;;;4.40;2.30;;;13.70;99.90;;;;;;5116488;27;20064;-52
2023/05/12 08:20:40;;;;;;;3.22;2.05;;;13.80;99.90;;;;;;5128028;27;20122;-52
2023/05/12 08:23:07;;;;;;;3.90;2.53;;;13.90;99.90;;;;;;5125652;27;20067;-54
2023/05/12 08:25:35;;;;;;;5.47;2.38;;;13.70;99.90;;;;;;5132733;27;20099;-54
2023/05/12 08:28:02;;;;;;;3.15;2.00;;;13.60;99.90;;;;;;5131460;27;20104;-53
2023/05/12 08:30:29;;;;;;;2.80;2.15;;;13.70;99.90;;;;;;5126705;27;20469;-52
2023/05/12 08:32:56;;;;;;;3.58;2.42;;;13.70;99.90;;;;;;5130759;27;20070;-51
2023/05/12 08:35:25;;;;;;;3.13;2.40;;;13.80;99.90;;;;;;5123036;27;20544;-52
2023/05/12 08:37:52;;;;;;;3.13;2.30;;;13.80;99.90;;;;;;5119892;27;20096;-53
2023/05/12 08:40:23;;;;;;;3.83;2.47;;;13.90;99.90;;;;;;5115748;27;20054;-52
2023/05/12 08:43:20;;;;;;;2.75;1.70;;;13.70;99.90;;;;;;5123166;27;20433;-51
2023/05/12 08:45:48;;;;;;;5.25;2.05;;;13.60;99.90;;;;;;5119334;27;20380;-51
2023/05/12 08:48:18;;;;;;;3.72;2.03;;;13.60;99.90;;;;;;5119603;27;20035;-50
2023/05/12 08:50:48;;;;;;;3.42;2.20;;;13.60;99.90;;;;;;5109424;27;20554;-54
2023/05/12 08:53:18;;;;;;;5.35;2.25;;;13.50;99.90;;;;;;5131590;27;20088;-53
2023/05/12 08:55:46;;;;;;;3.47;2.00;;;13.60;99.90;;;;;;5119410;27;20050;-53
2023/05/12 08:58:34;;;;;;;4.10;1.63;;;13.80;99.90;;;;;;5111507;27;20499;-54
2023/05/12 09:01:09;;;;;;;5.57;2.13;;;13.80;99.90;;;;;;5122356;27;20084;-54
2023/05/12 09:03:36;;;;;;;3.53;2.30;;;13.90;99.90;;;;;;5130345;27;20380;-51
2023/05/12 09:06:05;;;;;;;2.25;1.60;;;13.90;99.90;;;;;;5121722;27;20055;-53
2023/05/12 09:08:33;;;;;;;3.08;2.38;;;14.00;99.90;;;;;;5131354;27;20046;-52
2023/05/12 09:11:01;;;;;;;2.92;2.13;;;14.50;99.90;;;;;;5122134;27;20134;-52
2023/05/12 09:13:48;;;;;;;5.43;2.85;;;14.20;99.90;;;;;;5123511;27;20050;-53
2023/05/12 09:16:24;;;;;;;5.17;1.87;;;14.20;99.90;;;;;;5121652;27;20051;-52
2023/05/12 09:18:53;;;;;;;3.42;1.80;;;14.30;99.90;;;;;;5123015;27;20059;-54
2023/05/12 09:21:20;;;;;;;4.03;2.17;;;14.40;99.90;;;;;;5116968;27;20086;-52
2023/05/12 09:24:05;;;;;;;3.03;1.90;;;14.50;99.90;;;;;;5121804;27;20041;-55
2023/05/12 09:26:53;;;;;;;3.88;1.65;;;14.70;99.90;;;;;;5130256;27;20498;-51
2023/05/12 09:29:20;;;;;;;2.27;1.67;;;14.90;99.90;;;;;;5118721;27;20467;-52
2023/05/12 09:32:00;;;;;;;;;;;14.80;99.90;;;;;;5116870;27;20063;-52
2023/05/12 09:34:37;;;;;;;4.80;1.42;;;14.90;99.90;;;;;;5127353;28;19926;-52
2023/05/12 09:37:05;;;;;;;2.53;2.00;;;15.20;99.90;;;;;;5122797;28;20035;-51
2023/05/12 09:39:33;;;;;;;2.55;1.70;;;15.30;99.90;;;;;;5121868;28;20347;-52
2023/05/12 09:42:00;;;;;;;1.60;1.30;;;15.30;99.90;;;;;;5123804;28;20042;-54
2023/05/12 09:44:29;;;;;;;2.05;1.50;;;15.40;99.90;;;;;;5121293;28;20086;-52
2023/05/12 09:47:05;;;;;;;2.92;1.40;;;15.40;99.90;;;;;;5115102;28;20074;-56
2023/05/12 09:49:32;;;;;;;2.53;1.30;;;15.40;99.90;;;;;;5120250;28;20061;-56
2023/05/12 09:51:59;;;;;;;2.80;1.50;;;15.30;99.90;;;;;;5123575;28;20043;-51
2023/05/12 09:54:27;;;;;;;2.20;1.20;;;15.50;99.90;;;;;;5121246;28;20070;-52
2023/05/12 09:56:59;;;;;;;1.48;1.27;;;15.70;99.90;;;;;;5122791;27;20092;-55
2023/05/12 09:59:33;;;;;;;1.45;1.10;;;15.70;99.90;;;;;;5121064;28;20035;-56
2023/05/12 10:02:03;;;;;;;2.42;1.20;;;15.60;99.90;;;;;;5123718;28;20039;-53
2023/05/12 10:04:43;;;;;;;5.68;1.30;;;15.70;99.90;;;;;;5112568;28;20476;-53
2023/05/12 10:07:13;;;;;;;2.72;1.77;;;15.70;99.90;;;;;;5110764;28;20104;-53
2023/05/12 10:09:41;;;;;;;7.85;1.60;;;15.80;99.90;;;;;;5126060;28;20043;-50
2023/05/12 10:12:08;;;;;;;1.42;1.10;;;15.90;99.90;;;;;;5109906;28;20157;-55
2023/05/12 10:14:36;;;;;;;2.67;1.20;;;15.80;99.90;;;;;;5128978;27;20043;-52
2023/05/12 10:17:05;;;;;;;4.03;1.15;;;15.90;99.90;;;;;;5118944;27;20433;-52
2023/05/12 10:19:34;;;;;;;1.63;1.10;;;16.00;99.90;;;;;;5124526;27;20492;-53
2023/05/12 10:22:01;;;;;;;2.45;1.30;;;16.10;99.90;;;;;;5131907;27;20039;-54
2023/05/12 10:24:28;;;;;;;1.25;1.05;;;15.90;99.90;;;;;;5125680;27;20040;-52
2023/05/12 10:26:56;;;;;;;3.90;1.00;;;15.90;99.90;;;;;;5125615;27;20074;-53
2023/05/12 10:29:31;;;;;;;1.75;1.13;;;15.80;99.90;;;;;;5125042;27;20065;-51
2023/05/12 10:32:02;;;;;;;1.45;0.93;;;15.90;99.90;;;;;;5127030;27;20039;-55
2023/05/12 10:34:33;;;;;;;1.50;1.00;;;15.90;99.90;;;;;;5125997;27;20073;-52
2023/05/12 10:37:03;;;;;;;3.95;1.00;;;15.90;99.90;;;;;;5116954;27;20046;-53
2023/05/12 10:39:31;;;;;;;2.60;0.88;;;16.00;99.90;;;;;;5126784;27;20039;-53
2023/05/12 10:42:08;;;;;;;2.10;0.57;;;15.90;99.90;;;;;;5128327;27;20050;-54
2023/05/12 10:44:46;;;;;;;0.90;0.60;;;15.90;99.90;;;;;;5126241;27;20039;-52
2023/05/12 10:47:16;;;;;;;;;;;16.00;99.90;;;;;;5133648;27;20078;-55
2023/05/12 10:49:43;;;;;;;4.70;0.60;;;16.00;99.90;;;;;;5119194;27;20295;-52
2023/05/12 10:52:12;;;;;;;0.90;0.70;;;15.90;99.90;;;;;;5129686;27;20046;-56
2023/05/12 10:54:43;;;;;;;0.50;0.50;;;15.80;99.90;;;;;;5126072;27;20096;-54
2023/05/12 10:57:15;;;;;;;0.98;0.47;;;15.90;99.90;;;;;;5127834;27;20074;-52
2023/05/12 10:59:58;;;;;;;0.52;0.52;;;16.10;99.90;;;;;;5117401;27;20088;-52
2023/05/12 11:02:31;;;;;;;3.50;0.70;;;16.10;99.90;;;;;;5128386;27;20035;-55
2023/05/12 11:05:03;;;;;;;0.70;0.70;;;16.30;99.90;;;;;;5125298;27;20042;-53
2023/05/12 11:07:32;;;;;;;1.10;0.90;;;16.10;99.90;;;;;;5132117;27;20046;-51
2023/05/12 11:10:02;;;;;;;4.90;0.90;;;16.20;99.90;;;;;;5117260;27;20170;-52
2023/05/12 11:12:34;;;;;;;0.73;0.70;;;16.30;99.90;;;;;;5133352;27;20047;-52
2023/05/12 11:15:01;;;;;;;1.08;0.50;;;16.40;99.90;;;;;;5120940;27;20437;-52
2023/05/12 11:17:28;;;;;;;1.00;0.82;;;16.30;99.90;;;;;;5130029;27;20035;-52
2023/05/12 11:19:55;;;;;;;0.85;0.50;;;16.30;99.90;;;;;;5125145;27;20035;-55
2023/05/12 11:22:22;;;;;;;1.13;0.80;;;16.30;99.90;;;;;;5129209;27;20043;-54
2023/05/12 11:24:51;;;;;;;1.90;0.50;;;16.30;99.90;;;;;;5122591;27;20428;-51
2023/05/12 11:27:19;;;;;;;0.70;0.50;;;16.20;99.90;;;;;;5124399;27;20491;-51
2023/05/12 11:30:01;;;;;;;3.33;0.50;;;16.20;99.90;;;;;;5124901;27;20092;-54
2023/05/12 11:32:28;;;;;;;4.32;0.50;;;16.10;99.90;;;;;;5133626;27;20039;-52
2023/05/12 11:35:14;;;;;;;3.55;0.60;;;16.00;99.90;;;;;;5119952;27;20133;-52
2023/05/12 11:37:42;;;;;;;0.38;0.38;;;15.90;99.90;;;;;;5132959;27;20088;-51
2023/05/12 11:40:12;;;;;;;0.65;0.30;;;15.80;99.90;;;;;;5115639;27;20070;-54
2023/05/12 11:42:40;;;;;;;2.28;0.40;;;15.80;99.90;;;;;;5132803;27;20043;-51
2023/05/12 11:45:17;;;;;;;1.50;0.60;;;15.90;99.90;;;;;;5119601;27;20044;-54
2023/05/12 11:47:44;;;;;;;1.52;0.75;;;15.90;99.90;;;;;;5121507;27;20050;-54
2023/05/12 11:50:11;;;;;;;1.95;0.70;;;16.00;99.90;;;;;;5125155;27;20039;-52
2023/05/12 11:52:38;;;;;;;0.93;0.50;;;16.00;99.90;;;;;;5123899;27;20035;-54
2023/05/12 11:55:05;;;;;;;2.17;0.50;;;16.00;99.90;;;;;;5119864;27;20096;-52
2023/05/12 11:57:35;;;;;;;0.63;0.55;;;15.90;99.90;;;;;;5121137;27;20096;-53
2023/05/12 12:00:06;;;;;;;1.60;0.70;;;15.90;99.90;;;;;;5123708;27;20043;-52
2023/05/12 12:02:42;;;;;;;17.02;1.10;;;15.80;99.90;;;;;;5123699;27;20036;-55
2023/05/12 12:05:20;;;;;;;2.55;0.80;;;15.60;99.90;;;;;;5116561;27;20484;-52
2023/05/12 12:07:47;;;;;;;4.97;0.98;;;15.40;99.90;;;;;;5124252;27;20071;-53
2023/05/12 12:10:16;;;;;;;7.18;1.05;;;15.20;99.90;;;;;;5122371;27;20064;-51
2023/05/12 12:12:43;;;;;;;3.92;0.75;;;15.10;99.90;;;;;;5131624;27;20036;-52
2023/05/12 12:15:10;;;;;;;;;;;15.10;99.90;;;;;;5124594;27;20119;-51
2023/05/12 12:17:38;;;;;;;3.08;0.50;;;15.00;99.90;;;;;;5120521;27;19967;-55
2023/05/12 12:20:06;;;;;;;2.45;0.70;;;15.00;99.90;;;;;;5130900;27;20053;-52
2023/05/12 12:22:34;;;;;;;2.25;0.65;;;15.00;99.90;;;;;;5121963;27;20039;-50
2023/05/12 12:25:02;;;;;;;5.38;0.88;;;15.00;99.90;;;;;;5126531;27;20047;-53
2023/05/12 12:27:28;;;;;;;4.10;0.60;;;15.10;99.90;;;;;;5128300;27;20039;-52
2023/05/12 12:29:55;;;;;;;1.08;0.60;;;15.00;99.90;;;;;;5129179;27;20054;-53
2023/05/12 12:32:22;;;;;;;2.63;0.73;;;15.10;99.90;;;;;;5128192;27;20506;-53
2023/05/12 12:34:49;;;;;;;4.68;0.65;;;15.10;99.90;;;;;;5125432;27;20039;-52
2023/05/12 12:37:16;;;;;;;0.93;0.70;;;15.20;99.90;;;;;;5127067;27;20398;-52
2023/05/12 12:39:42;;;;;;;1.17;0.63;;;15.30;99.90;;;;;;5124948;27;20039;-51
2023/05/12 12:42:09;;;;;;;4.38;0.80;;;15.40;99.90;;;;;;5130399;27;20479;-53
2023/05/12 12:44:36;;;;;;;1.70;0.60;;;15.40;99.90;;;;;;5124985;27;20450;-54
2023/05/12 12:47:03;;;;;;;1.83;1.00;;;15.50;99.90;;;;;;5126706;27;20047;-52
2023/05/12 12:49:30;;;;;;;0.82;0.77;;;15.60;99.90;;;;;;5130285;27;20458;-53
2023/05/12 12:51:57;;;;;;;2.13;0.60;;;15.60;99.90;;;;;;5127672;27;20092;-52
2023/05/12 12:54:25;;;;;;;0.85;0.70;;;15.70;99.90;;;;;;5120082;27;20482;-53
2023/05/12 12:56:54;;;;;;;0.95;0.60;;;15.70;99.90;;;;;;5120750;27;20042;-53
2023/05/12 12:59:21;;;;;;;1.98;0.70;;;15.70;99.90;;;;;;5115445;27;20039;-51
2023/05/12 13:01:48;;;;;;;1.92;0.80;;;15.80;99.90;;;;;;5127385;27;20035;-53